createdAt,value
2022-08-24T00:00:23.382Z,9.98
2022-08-24T00:02:56.893Z,10.73
2022-08-24T00:05:27.204Z,12.82
2022-08-24T00:07:57.337Z,10.05
2022-08-24T00:10:28.257Z,12.55
2022-08-24T00:12:59.818Z,12.18
2022-08-24T00:15:30.268Z,10.10
2022-08-24T00:18:00.298Z,12.63
2022-08-24T00:20:31.468Z,14.68
2022-08-24T00:23:02.247Z,12.85
2022-08-24T00:25:32.704Z,11.75
2022-08-24T00:28:03.038Z,11.38
2022-08-24T00:30:34.884Z,12.98
2022-08-24T00:33:06.601Z,14.60
2022-08-24T00:35:37.727Z,15.23
2022-08-24T00:38:08.422Z,16.35
2022-08-24T00:40:43.346Z,12.23
2022-08-24T00:43:14.331Z,13.45
2022-08-24T00:45:49.988Z,14.10
2022-08-24T00:48:27.010Z,14.35
2022-08-24T00:51:02.711Z,12.77
2022-08-24T00:53:50.238Z,12.40
2022-08-24T00:56:26.410Z,13.73
2022-08-24T00:59:02.512Z,10.88
2022-08-24T01:01:35.137Z,17.55
2022-08-24T01:06:37.144Z,13.85
2022-08-24T01:09:07.747Z,13.40
2022-08-24T01:11:40.676Z,12.60
2022-08-24T01:14:11.130Z,16.08
2022-08-24T01:17:00.024Z,10.43
2022-08-24T01:19:43.768Z,14.48
2022-08-24T01:22:28.872Z,22.90
2022-08-24T01:24:59.434Z,12.25
2022-08-24T01:27:30.610Z,13.10
2022-08-24T01:30:03.487Z,12.63
2022-08-24T01:35:03.523Z,14.05
2022-08-24T01:37:34.686Z,14.40
2022-08-24T01:40:08.513Z,12.93
2022-08-24T01:42:39.118Z,11.82
2022-08-24T01:45:10.307Z,13.00
2022-08-24T01:47:41.177Z,16.05
2022-08-24T01:50:13.020Z,11.38
2022-08-24T01:53:04.304Z,11.10
2022-08-24T01:58:07.234Z,14.57
2022-08-24T02:00:39.159Z,11.85
2022-08-24T02:03:10.435Z,13.38
2022-08-24T02:05:42.315Z,20.38
2022-08-24T02:08:18.836Z,12.77
2022-08-24T02:10:56.613Z,16.85
2022-08-24T02:13:30.482Z,12.15
2022-08-24T02:16:02.143Z,10.68
2022-08-24T02:18:37.985Z,11.75
2022-08-24T02:21:11.145Z,12.10
2022-08-24T02:23:43.037Z,16.40
2022-08-24T02:28:46.054Z,16.77
2022-08-24T02:31:17.588Z,13.35
2022-08-24T02:33:48.648Z,11.80
2022-08-24T02:36:25.169Z,12.48
2022-08-24T02:39:01.460Z,15.10
2022-08-24T02:41:34.059Z,12.80
2022-08-24T02:44:05.335Z,12.90
2022-08-24T02:46:38.022Z,11.52
2022-08-24T02:49:12.020Z,12.63
2022-08-24T02:51:47.105Z,11.48
2022-08-24T02:54:22.949Z,12.63
2022-08-24T02:56:55.706Z,11.85
2022-08-24T02:59:27.571Z,13.70
2022-08-24T03:01:58.138Z,14.35
2022-08-24T03:04:28.730Z,10.85
2022-08-24T03:07:00.376Z,16.83
2022-08-24T03:09:30.996Z,11.43
2022-08-24T03:12:02.389Z,11.98
2022-08-24T03:14:33.389Z,11.00
2022-08-24T03:17:04.093Z,11.98
2022-08-24T03:19:35.030Z,13.48
2022-08-24T03:22:05.653Z,10.85
2022-08-24T03:24:36.528Z,11.25
2022-08-24T03:27:08.197Z,14.57
2022-08-24T03:29:38.904Z,9.55
2022-08-24T03:32:10.324Z,13.02
2022-08-24T03:34:40.413Z,13.18
2022-08-24T03:37:11.324Z,12.52
2022-08-24T03:39:42.204Z,12.45
2022-08-24T03:42:12.815Z,15.95
2022-08-24T03:44:43.568Z,11.82
2022-08-24T03:47:14.955Z,12.45
2022-08-24T03:49:46.241Z,10.27
2022-08-24T03:52:17.553Z,14.38
2022-08-24T03:54:48.403Z,9.50
2022-08-24T03:57:19.162Z,13.10
2022-08-24T03:59:50.869Z,12.43
2022-08-24T04:02:21.382Z,10.23
2022-08-24T04:04:51.434Z,12.60
2022-08-24T04:07:22.432Z,9.18
2022-08-24T04:09:53.210Z,9.52
2022-08-24T04:12:24.391Z,12.95
2022-08-24T04:14:58.699Z,9.02
2022-08-24T04:17:31.545Z,12.05
2022-08-24T04:20:02.370Z,10.13
2022-08-24T04:22:37.937Z,12.63
2022-08-24T04:25:09.821Z,17.05
2022-08-24T04:27:43.327Z,14.85
2022-08-24T04:33:05.810Z,14.43
2022-08-24T04:35:49.554Z,11.43
2022-08-24T04:38:22.496Z,9.82
2022-08-24T04:41:30.839Z,11.45
2022-08-24T04:44:03.496Z,12.95
2022-08-24T04:46:34.124Z,12.35
2022-08-24T04:49:05.297Z,11.02
2022-08-24T04:51:36.816Z,14.75
2022-08-24T04:56:40.679Z,13.85
2022-08-24T04:59:11.395Z,9.55
2022-08-24T05:01:44.255Z,14.25
2022-08-24T05:04:15.688Z,13.75
2022-08-24T05:06:45.841Z,12.40
2022-08-24T05:09:16.204Z,10.18
2022-08-24T05:11:49.892Z,8.52
2022-08-24T05:14:28.636Z,10.27
2022-08-24T05:16:59.291Z,10.25
2022-08-24T05:19:29.743Z,7.28
2022-08-24T05:22:00.271Z,9.25
2022-08-24T05:24:31.189Z,8.18
2022-08-24T05:27:01.729Z,8.25
2022-08-24T05:29:34.897Z,10.55
2022-08-24T05:32:06.642Z,8.85
2022-08-24T05:34:37.681Z,10.35
2022-08-24T05:37:07.649Z,8.48
2022-08-24T05:39:48.355Z,7.55
2022-08-24T05:42:18.796Z,8.05
2022-08-24T05:44:51.084Z,7.65
2022-08-24T05:47:24.393Z,8.02
2022-08-24T05:49:56.264Z,8.10
2022-08-24T05:52:27.070Z,9.93
2022-08-24T05:54:59.730Z,7.50
2022-08-24T05:57:35.409Z,10.05
2022-08-24T06:00:21.263Z,8.07
2022-08-24T06:02:54.228Z,9.50
2022-08-24T06:05:25.078Z,6.75
2022-08-24T06:07:55.388Z,7.38
2022-08-24T06:10:40.472Z,12.15
2022-08-24T06:13:13.607Z,8.52
2022-08-24T06:15:59.468Z,8.07
2022-08-24T06:18:35.289Z,7.50
2022-08-24T06:23:45.451Z,9.73
2022-08-24T06:26:34.883Z,8.57
2022-08-24T06:29:07.163Z,7.82
2022-08-24T06:31:46.799Z,7.70
2022-08-24T06:34:20.219Z,10.73
2022-08-24T06:36:51.123Z,8.38
2022-08-24T06:39:25.661Z,12.10
2022-08-24T06:41:58.181Z,9.27
2022-08-24T06:44:36.170Z,9.65
2022-08-24T06:47:13.599Z,9.77
2022-08-24T06:49:44.413Z,7.20
2022-08-24T06:52:14.958Z,7.80
2022-08-24T06:54:45.747Z,7.95
2022-08-24T06:57:15.995Z,6.75
2022-08-24T06:59:46.781Z,7.30
2022-08-24T07:02:20.087Z,9.85
2022-08-24T07:04:51.022Z,10.23
2022-08-24T07:07:39.926Z,8.25
2022-08-24T07:10:12.081Z,7.78
2022-08-24T07:12:42.991Z,8.80
2022-08-24T07:15:20.568Z,6.82
2022-08-24T07:18:02.439Z,7.15
2022-08-24T07:20:32.764Z,9.73
2022-08-24T07:23:15.783Z,8.40
2022-08-24T07:25:49.568Z,11.23
2022-08-24T07:28:31.757Z,12.80
2022-08-24T07:31:03.617Z,7.75
2022-08-24T07:33:39.865Z,9.27
2022-08-24T07:36:11.483Z,8.63
2022-08-24T07:38:49.911Z,10.55
2022-08-24T07:41:51.294Z,9.18
2022-08-24T07:44:14.916Z,9.77
2022-08-24T07:46:46.378Z,8.32
2022-08-24T07:49:34.689Z,8.63
2022-08-24T07:52:08.731Z,9.68
2022-08-24T07:54:39.180Z,9.25
2022-08-24T07:57:09.675Z,9.25
2022-08-24T07:59:40.414Z,7.47
2022-08-24T08:02:12.695Z,7.15
2022-08-24T08:04:48.535Z,7.82
2022-08-24T08:07:20.025Z,8.50
2022-08-24T08:09:52.199Z,7.28
2022-08-24T08:12:22.397Z,6.93
2022-08-24T08:14:58.959Z,8.63
2022-08-24T08:17:29.790Z,6.95
2022-08-24T08:19:59.679Z,8.35
2022-08-24T08:22:48.101Z,10.55
2022-08-24T08:25:56.136Z,7.53
2022-08-24T08:28:37.406Z,8.15
2022-08-24T08:31:08.421Z,10.25
2022-08-24T08:33:39.247Z,7.25
2022-08-24T08:36:20.346Z,8.63
2022-08-24T08:38:53.049Z,7.72
2022-08-24T08:41:55.604Z,8.00
2022-08-24T08:44:51.540Z,6.95
2022-08-24T08:47:55.249Z,9.68
2022-08-24T08:50:52.148Z,7.60
2022-08-24T08:53:40.419Z,8.57
2022-08-24T08:56:19.097Z,9.60
2022-08-24T08:59:35.121Z,12.45
2022-08-24T09:02:18.943Z,9.00
2022-08-24T09:05:39.193Z,7.20
2022-08-24T09:08:33.957Z,10.05
2022-08-24T09:11:25.950Z,8.48
2022-08-24T09:14:11.454Z,7.05
2022-08-24T09:16:51.312Z,9.13
2022-08-24T09:19:59.910Z,7.45
2022-08-24T09:22:30.754Z,10.45
2022-08-24T09:25:14.285Z,9.35
2022-08-24T09:28:11.550Z,9.38
2022-08-24T09:31:02.667Z,8.88
2022-08-24T09:33:39.501Z,7.70
2022-08-24T09:36:35.699Z,7.82
2022-08-24T09:39:42.311Z,7.68
2022-08-24T09:42:21.152Z,6.75
2022-08-24T09:45:22.376Z,8.75
2022-08-24T09:47:58.299Z,7.53
2022-08-24T09:50:48.402Z,7.75
2022-08-24T09:53:26.878Z,10.35
2022-08-24T09:56:26.348Z,11.13
2022-08-24T09:59:26.141Z,8.98
2022-08-24T10:02:09.110Z,10.45
2022-08-24T10:04:51.877Z,9.43
2022-08-24T10:07:47.525Z,8.13
2022-08-24T10:10:58.814Z,10.65
2022-08-24T10:13:53.068Z,9.30
2022-08-24T10:16:37.991Z,9.65
2022-08-24T10:19:23.612Z,9.65
2022-08-24T10:22:26.946Z,10.07
2022-08-24T10:25:10.170Z,10.82
2022-08-24T10:27:59.631Z,8.25
2022-08-24T10:30:49.193Z,10.25
2022-08-24T10:33:28.339Z,17.35
2022-08-24T10:36:43.931Z,8.75
2022-08-24T10:39:32.230Z,10.80
2022-08-24T10:42:47.832Z,10.07
2022-08-24T10:45:33.094Z,12.60
2022-08-24T10:48:34.731Z,13.65
2022-08-24T10:51:10.680Z,14.18
2022-08-24T10:53:41.734Z,9.27
2022-08-24T10:56:20.772Z,13.32
2022-08-24T10:59:18.042Z,9.35
2022-08-24T11:02:12.650Z,14.60
2022-08-24T11:04:45.594Z,13.43
2022-08-24T11:07:22.346Z,10.13
2022-08-24T11:10:00.231Z,11.15
2022-08-24T11:12:43.894Z,10.25
2022-08-24T11:15:20.550Z,9.63
2022-08-24T11:18:05.465Z,13.32
2022-08-24T11:20:50.474Z,11.85
2022-08-24T11:23:36.578Z,12.10
2022-08-24T11:26:23.420Z,8.93
2022-08-24T11:28:59.321Z,11.65
2022-08-24T11:31:36.283Z,12.20
2022-08-24T11:34:35.346Z,10.52
2022-08-24T11:37:07.284Z,12.38
2022-08-24T11:39:39.481Z,10.95
2022-08-24T11:42:19.621Z,12.32
2022-08-24T11:45:21.888Z,7.32
2022-08-24T11:47:55.417Z,8.43
2022-08-24T11:50:37.279Z,13.63
2022-08-24T11:53:12.921Z,12.05
2022-08-24T11:56:00.719Z,13.05
2022-08-24T11:59:01.549Z,9.68
2022-08-24T12:02:02.222Z,13.02
2022-08-24T12:04:51.512Z,19.25
2022-08-24T12:07:32.796Z,18.27
2022-08-24T12:10:24.250Z,18.67
2022-08-24T12:15:33.251Z,14.85
2022-08-24T12:18:13.671Z,13.43
2022-08-24T12:20:48.135Z,14.85
2022-08-24T12:23:26.018Z,9.85
2022-08-24T12:26:13.721Z,10.30
2022-08-24T12:28:54.520Z,5.68
2022-08-24T12:32:16.676Z,10.88
2022-08-24T12:35:15.509Z,5.97
2022-08-24T12:38:00.949Z,7.32
2022-08-24T12:40:54.990Z,5.97
2022-08-24T12:43:53.674Z,7.30
2022-08-24T12:46:28.047Z,7.80
2022-08-24T12:49:08.475Z,5.15
2022-08-24T12:52:12.066Z,5.72
2022-08-24T12:55:12.231Z,8.45
2022-08-24T12:58:30.935Z,4.80
2022-08-24T13:01:03.927Z,4.68
2022-08-24T13:03:40.810Z,6.68
2022-08-24T13:06:27.966Z,6.13
2022-08-24T13:09:16.783Z,6.53
2022-08-24T13:11:48.570Z,5.63
2022-08-24T13:14:27.802Z,5.85
2022-08-24T13:17:01.102Z,5.28
2022-08-24T13:19:43.398Z,4.13
2022-08-24T13:22:17.108Z,6.50
2022-08-24T13:24:49.888Z,4.72
2022-08-24T13:27:20.396Z,24.13
2022-08-24T13:30:08.331Z,6.63
2022-08-24T13:32:40.722Z,5.18
2022-08-24T13:35:38.128Z,4.57
2022-08-24T13:38:42.533Z,6.88
2022-08-24T13:41:25.833Z,6.28
2022-08-24T13:44:24.828Z,5.45
2022-08-24T13:47:22.753Z,4.68
2022-08-24T13:50:29.865Z,5.85
2022-08-24T13:53:33.220Z,5.25
2022-08-24T13:59:35.412Z,6.70
2022-08-24T14:02:38.005Z,6.93
2022-08-24T14:05:31.421Z,5.25
2022-08-24T14:08:35.270Z,4.47
2022-08-24T14:11:20.585Z,4.50
2022-08-24T14:14:08.126Z,6.72
2022-08-24T14:17:35.774Z,4.28
2022-08-24T14:20:21.962Z,5.25
2022-08-24T14:23:08.091Z,4.43
2022-08-24T14:25:39.687Z,6.00
2022-08-24T14:28:42.044Z,7.18
2022-08-24T14:31:30.614Z,4.28
2022-08-24T14:34:27.886Z,4.18
2022-08-24T14:40:04.884Z,4.20
2022-08-24T14:42:40.547Z,5.95
2022-08-24T14:45:40.798Z,4.53
2022-08-24T14:48:58.588Z,4.82
2022-08-24T14:51:55.606Z,3.45
2022-08-24T14:54:36.383Z,6.93
2022-08-24T14:57:28.231Z,6.10
2022-08-24T15:00:16.297Z,4.50
2022-08-24T15:02:50.148Z,4.68
2022-08-24T15:05:38.566Z,5.38
2022-08-24T15:08:16.190Z,4.38
2022-08-24T15:10:58.352Z,5.35
2022-08-24T15:13:41.528Z,4.30
2022-08-24T15:16:15.837Z,4.95
2022-08-24T15:19:03.563Z,4.95
2022-08-24T15:21:52.371Z,4.80
2022-08-24T15:24:43.590Z,5.45
2022-08-24T15:27:50.444Z,3.90
2022-08-24T15:30:31.659Z,5.25
2022-08-24T15:33:19.341Z,3.75
2022-08-24T15:36:06.709Z,4.60
2022-08-24T15:38:40.392Z,7.80
2022-08-24T15:41:22.100Z,5.55
2022-08-24T15:44:02.118Z,5.15
2022-08-24T15:46:40.665Z,3.67
2022-08-24T15:49:35.793Z,3.70
2022-08-24T15:52:10.445Z,4.40
2022-08-24T15:54:47.549Z,5.70
2022-08-24T15:57:20.691Z,4.63
2022-08-24T15:59:53.657Z,6.30
2022-08-24T16:02:34.413Z,3.38
2022-08-24T16:05:17.755Z,3.55
2022-08-24T16:08:10.780Z,6.13
2022-08-24T16:10:45.954Z,3.10
2022-08-24T16:13:23.050Z,5.82
2022-08-24T16:16:06.644Z,3.35
2022-08-24T16:19:07.557Z,5.28
2022-08-24T16:21:54.628Z,5.63
2022-08-24T16:24:31.581Z,5.47
2022-08-24T16:27:16.132Z,4.43
2022-08-24T16:29:50.378Z,5.05
2022-08-24T16:32:32.729Z,4.72
2022-08-24T16:35:10.319Z,4.70
2022-08-24T16:37:41.117Z,4.22
2022-08-24T16:40:11.955Z,3.90
2022-08-24T16:42:42.512Z,4.00
2022-08-24T16:45:18.539Z,5.70
2022-08-24T16:47:49.840Z,4.60
2022-08-24T16:50:22.410Z,4.70
2022-08-24T16:52:58.035Z,5.45
2022-08-24T16:55:29.768Z,5.82
2022-08-24T16:58:02.875Z,5.63
2022-08-24T17:00:33.307Z,5.70
2022-08-24T17:03:03.214Z,4.80
2022-08-24T17:05:34.411Z,4.72
2022-08-24T17:08:05.351Z,6.93
2022-08-24T17:10:37.945Z,3.95
2022-08-24T17:13:08.582Z,6.32
2022-08-24T17:15:39.034Z,6.10
2022-08-24T17:18:12.300Z,5.65
2022-08-24T17:20:42.916Z,5.70
2022-08-24T17:23:14.045Z,5.82
2022-08-24T17:25:44.748Z,5.95
2022-08-24T17:28:19.959Z,6.18
2022-08-24T17:30:51.620Z,5.43
2022-08-24T17:33:21.860Z,5.30
2022-08-24T17:35:55.731Z,5.22
2022-08-24T17:38:26.848Z,5.43
2022-08-24T17:40:56.972Z,5.38
2022-08-24T17:43:27.224Z,4.90
2022-08-24T17:45:57.827Z,5.15
2022-08-24T17:48:29.713Z,5.97
2022-08-24T17:51:00.252Z,4.93
2022-08-24T17:53:30.134Z,5.07
2022-08-24T17:56:01.360Z,5.72
2022-08-24T17:58:31.932Z,5.25
2022-08-24T18:01:02.400Z,5.72
2022-08-24T18:03:32.351Z,4.75
2022-08-24T18:06:02.958Z,4.53
2022-08-24T18:08:33.617Z,4.88
2022-08-24T18:11:04.065Z,5.85
2022-08-24T18:13:34.667Z,5.40
2022-08-24T18:16:05.986Z,6.05
2022-08-24T18:18:36.738Z,5.72
2022-08-24T18:21:06.978Z,6.57
2022-08-24T18:23:40.642Z,5.38
2022-08-24T18:26:16.549Z,7.40
2022-08-24T18:28:47.844Z,6.57
2022-08-24T18:31:22.580Z,5.32
2022-08-24T18:33:53.420Z,5.45
2022-08-24T18:36:23.440Z,5.25
2022-08-24T18:38:54.408Z,5.13
2022-08-24T18:41:29.138Z,5.43
2022-08-24T18:44:00.565Z,6.55
2022-08-24T18:46:32.529Z,5.10
2022-08-24T18:49:03.883Z,8.18
2022-08-24T18:51:38.909Z,5.28
2022-08-24T18:54:17.661Z,7.68
2022-08-24T18:56:48.500Z,6.20
2022-08-24T18:59:20.592Z,7.95
2022-08-24T19:02:11.710Z,6.13
2022-08-24T19:04:49.249Z,6.13
2022-08-24T19:07:19.373Z,5.95
2022-08-24T19:09:49.578Z,6.05
2022-08-24T19:12:21.008Z,6.40
2022-08-24T19:14:55.812Z,6.72
2022-08-24T19:17:26.108Z,6.05
2022-08-24T19:19:56.009Z,6.05
2022-08-24T19:22:27.640Z,7.88
2022-08-24T19:25:00.260Z,5.85
2022-08-24T19:27:30.439Z,5.93
2022-08-24T19:30:02.201Z,4.85
2022-08-24T19:32:40.091Z,5.90
2022-08-24T19:35:13.294Z,5.15
2022-08-24T19:37:44.457Z,8.57
2022-08-24T19:40:15.803Z,7.90
2022-08-24T19:42:46.661Z,6.05
2022-08-24T19:45:36.569Z,6.10
2022-08-24T19:48:07.253Z,6.38
2022-08-24T19:50:37.524Z,5.57
2022-08-24T19:53:08.434Z,6.57
2022-08-24T19:55:39.580Z,8.40
2022-08-24T19:58:47.591Z,6.28
2022-08-24T20:01:27.762Z,6.55
2022-08-24T20:03:58.792Z,6.97
2022-08-24T20:06:31.571Z,6.45
2022-08-24T20:09:02.648Z,5.55
2022-08-24T20:11:33.009Z,7.28
2022-08-24T20:14:04.087Z,6.28
2022-08-24T20:16:39.935Z,6.60
2022-08-24T20:19:12.865Z,8.13
2022-08-24T20:21:43.197Z,7.55
2022-08-24T20:24:13.550Z,7.03
2022-08-24T20:26:47.208Z,7.28
2022-08-24T20:29:17.373Z,10.13
2022-08-24T20:31:53.482Z,8.68
2022-08-24T20:34:24.655Z,11.20
2022-08-24T20:36:55.305Z,10.10
2022-08-24T20:39:28.405Z,9.35
2022-08-24T20:41:58.794Z,8.25
2022-08-24T20:44:29.432Z,6.47
2022-08-24T20:47:00.417Z,6.57
2022-08-24T20:49:30.498Z,11.27
2022-08-24T20:52:04.050Z,9.90
2022-08-24T20:54:38.913Z,10.80
2022-08-24T20:57:13.458Z,6.40
2022-08-24T20:59:43.781Z,9.90
2022-08-24T21:02:13.953Z,8.25
2022-08-24T21:04:45.241Z,11.35
2022-08-24T21:07:15.930Z,12.63
2022-08-24T21:09:46.491Z,16.25
2022-08-24T21:12:16.450Z,12.70
2022-08-24T21:14:47.000Z,16.00
2022-08-24T21:17:17.802Z,13.65
2022-08-24T21:19:47.662Z,18.20
2022-08-24T21:22:18.233Z,17.92
2022-08-24T21:24:48.932Z,22.48
2022-08-24T21:27:20.509Z,21.25
2022-08-24T21:29:50.890Z,23.25
2022-08-24T21:32:38.922Z,21.88
2022-08-24T21:35:09.682Z,16.52
2022-08-24T21:37:45.957Z,20.70
2022-08-24T21:40:16.781Z,25.52
2022-08-24T21:42:46.765Z,20.13
2022-08-24T21:45:17.151Z,16.98
2022-08-24T21:47:47.813Z,18.55
2022-08-24T21:50:19.395Z,15.02
2022-08-24T21:52:55.870Z,15.35
2022-08-24T21:55:28.528Z,15.15
2022-08-24T21:57:58.615Z,15.95
2022-08-24T22:00:28.914Z,13.95
2022-08-24T22:02:59.229Z,11.02
2022-08-24T22:05:29.449Z,9.88
2022-08-24T22:08:00.437Z,15.48
2022-08-24T22:10:32.768Z,13.65
2022-08-24T22:13:04.551Z,16.30
2022-08-24T22:15:35.302Z,15.10
2022-08-24T22:18:05.722Z,18.73
2022-08-24T22:20:36.388Z,16.65
2022-08-24T22:23:06.727Z,12.70
2022-08-24T22:25:37.655Z,22.98
2022-08-24T22:28:07.651Z,21.13
2022-08-24T22:30:39.295Z,21.23
2022-08-24T22:33:10.986Z,12.07
2022-08-24T22:35:44.821Z,16.05
2022-08-24T22:38:16.573Z,12.55
2022-08-24T22:40:48.369Z,16.40
2022-08-24T22:43:23.198Z,17.63
2022-08-24T22:45:55.906Z,16.38
2022-08-24T22:48:27.209Z,23.77
2022-08-24T22:50:59.866Z,13.73
2022-08-24T22:53:31.721Z,13.50
2022-08-24T22:56:02.944Z,15.15
2022-08-24T22:58:34.321Z,14.68
2022-08-24T23:01:05.922Z,13.45
2022-08-24T23:03:37.625Z,16.55
2022-08-24T23:06:09.064Z,21.25
2022-08-24T23:08:40.194Z,16.58
2022-08-24T23:11:11.591Z,15.98
2022-08-24T23:13:42.850Z,19.38
2022-08-24T23:16:34.322Z,15.30
2022-08-24T23:19:24.272Z,14.60
2022-08-24T23:21:56.049Z,14.02
2022-08-24T23:24:26.955Z,17.83
2022-08-24T23:26:59.055Z,13.60
2022-08-24T23:29:50.659Z,18.63
2022-08-24T23:32:21.744Z,15.45
2022-08-24T23:34:52.901Z,13.90
2022-08-24T23:37:23.234Z,12.90
2022-08-24T23:39:53.224Z,11.95
2022-08-24T23:42:24.137Z,15.98
2022-08-24T23:44:54.707Z,13.43
2022-08-24T23:47:25.279Z,13.50
2022-08-24T23:49:56.661Z,13.32
2022-08-24T23:52:29.809Z,18.38
2022-08-24T23:55:20.425Z,18.55
2022-08-24T23:57:52.721Z,21.23
